sensor_id;sensor_type;location;lat;lon;timestamp;P1;durP1;ratioP1;P2;durP2;ratioP2
78875;SDS011;68253;52.506;5.486;2023-03-30T20:17:39;10.10;;;2.05;;
78875;SDS011;68253;52.506;5.486;2023-03-30T20:20:07;8.43;;;1.77;;
78875;SDS011;68253;52.506;5.486;2023-03-30T20:22:42;10.73;;;2.20;;
78875;SDS011;68253;52.506;5.486;2023-03-30T20:25:10;10.00;;;1.95;;
78875;SDS011;68253;52.506;5.486;2023-03-30T20:27:38;9.98;;;1.90;;
78875;SDS011;68253;52.506;5.486;2023-03-30T20:30:04;9.27;;;2.05;;
78875;SDS011;68253;52.506;5.486;2023-03-30T20:32:32;10.57;;;1.90;;
78875;SDS011;68253;52.506;5.486;2023-03-30T20:34:58;9.57;;;1.70;;
78875;SDS011;68253;52.506;5.486;2023-03-30T20:37:24;8.48;;;2.05;;
78875;SDS011;68253;52.506;5.486;2023-03-30T20:39:51;8.18;;;1.80;;
78875;SDS011;68253;52.506;5.486;2023-03-30T20:42:17;9.35;;;2.08;;
78875;SDS011;68253;52.506;5.486;2023-03-30T20:44:50;9.02;;;1.75;;
78875;SDS011;68253;52.506;5.486;2023-03-30T20:47:16;7.30;;;1.67;;
78875;SDS011;68253;52.506;5.486;2023-03-30T20:49:43;9.57;;;1.80;;
78875;SDS011;68253;52.506;5.486;2023-03-30T20:52:10;6.60;;;1.85;;
78875;SDS011;68253;52.506;5.486;2023-03-30T20:54:37;8.98;;;2.30;;
78875;SDS011;68253;52.506;5.486;2023-03-30T20:57:03;9.77;;;1.83;;
78875;SDS011;68253;52.506;5.486;2023-03-30T20:59:29;8.88;;;1.60;;
78875;SDS011;68253;52.506;5.486;2023-03-30T21:01:55;7.75;;;1.55;;
78875;SDS011;68253;52.506;5.486;2023-03-30T21:04:24;6.97;;;1.40;;
78875;SDS011;68253;52.506;5.486;2023-03-30T21:06:51;9.27;;;1.88;;
78875;SDS011;68253;52.506;5.486;2023-03-30T21:09:18;8.55;;;1.77;;
78875;SDS011;68253;52.506;5.486;2023-03-30T21:11:44;7.60;;;1.75;;
78875;SDS011;68253;52.506;5.486;2023-03-30T21:14:11;7.25;;;1.45;;
78875;SDS011;68253;52.506;5.486;2023-03-30T21:16:38;7.28;;;1.70;;
78875;SDS011;68253;52.506;5.486;2023-03-30T21:19:07;8.40;;;1.67;;
78875;SDS011;68253;52.506;5.486;2023-03-30T21:21:34;9.02;;;1.70;;
78875;SDS011;68253;52.506;5.486;2023-03-30T21:24:02;7.95;;;1.95;;
78875;SDS011;68253;52.506;5.486;2023-03-30T21:26:29;9.43;;;1.60;;
78875;SDS011;68253;52.506;5.486;2023-03-30T21:28:56;7.70;;;1.50;;
78875;SDS011;68253;52.506;5.486;2023-03-30T21:31:22;8.27;;;1.92;;
78875;SDS011;68253;52.506;5.486;2023-03-30T21:33:48;7.20;;;1.40;;
78875;SDS011;68253;52.506;5.486;2023-03-30T21:36:15;6.82;;;1.50;;
78875;SDS011;68253;52.506;5.486;2023-03-30T21:38:41;8.32;;;1.67;;
78875;SDS011;68253;52.506;5.486;2023-03-30T21:41:09;7.35;;;1.35;;
78875;SDS011;68253;52.506;5.486;2023-03-30T21:43:37;9.07;;;1.52;;
78875;SDS011;68253;52.506;5.486;2023-03-30T21:46:07;7.50;;;1.20;;
78875;SDS011;68253;52.506;5.486;2023-03-30T21:48:37;7.78;;;1.52;;
78875;SDS011;68253;52.506;5.486;2023-03-30T21:51:08;7.93;;;1.55;;
78875;SDS011;68253;52.506;5.486;2023-03-30T21:53:44;10.32;;;1.63;;
78875;SDS011;68253;52.506;5.486;2023-03-30T21:56:13;7.82;;;1.70;;
78875;SDS011;68253;52.506;5.486;2023-03-30T21:58:39;7.78;;;1.60;;
78875;SDS011;68253;52.506;5.486;2023-03-30T22:01:07;7.22;;;1.38;;
78875;SDS011;68253;52.506;5.486;2023-03-30T22:03:33;6.85;;;1.48;;
78875;SDS011;68253;52.506;5.486;2023-03-30T22:06:02;6.90;;;1.40;;
78875;SDS011;68253;52.506;5.486;2023-03-30T22:08:29;8.10;;;1.30;;
78875;SDS011;68253;52.506;5.486;2023-03-30T22:11:00;9.63;;;1.63;;
78875;SDS011;68253;52.506;5.486;2023-03-30T22:13:29;6.45;;;1.38;;
78875;SDS011;68253;52.506;5.486;2023-03-30T22:18:21;8.75;;;1.50;;
78875;SDS011;68253;52.506;5.486;2023-03-30T22:20:47;6.43;;;1.10;;
78875;SDS011;68253;52.506;5.486;2023-03-30T22:23:13;8.02;;;1.48;;
78875;SDS011;68253;52.506;5.486;2023-03-30T22:25:39;7.07;;;1.30;;
78875;SDS011;68253;52.506;5.486;2023-03-30T22:28:06;6.97;;;1.55;;
78875;SDS011;68253;52.506;5.486;2023-03-30T22:30:33;7.47;;;1.50;;
78875;SDS011;68253;52.506;5.486;2023-03-30T22:33:00;9.15;;;1.58;;
78875;SDS011;68253;52.506;5.486;2023-03-30T22:35:27;7.63;;;1.45;;
78875;SDS011;68253;52.506;5.486;2023-03-30T22:37:53;7.20;;;1.40;;
78875;SDS011;68253;52.506;5.486;2023-03-30T22:40:19;6.65;;;1.23;;
78875;SDS011;68253;52.506;5.486;2023-03-30T22:42:45;9.55;;;1.50;;
78875;SDS011;68253;52.506;5.486;2023-03-30T22:45:11;8.20;;;1.20;;
78875;SDS011;68253;52.506;5.486;2023-03-30T22:47:37;7.75;;;1.65;;
78875;SDS011;68253;52.506;5.486;2023-03-30T22:50:03;8.15;;;1.38;;
78875;SDS011;68253;52.506;5.486;2023-03-30T22:52:30;6.80;;;1.30;;
78875;SDS011;68253;52.506;5.486;2023-03-30T22:54:57;7.05;;;1.20;;
78875;SDS011;68253;52.506;5.486;2023-03-30T22:57:23;7.72;;;1.40;;
78875;SDS011;68253;52.506;5.486;2023-03-30T22:59:49;4.88;;;1.17;;
78875;SDS011;68253;52.506;5.486;2023-03-30T23:02:15;6.22;;;1.20;;
78875;SDS011;68253;52.506;5.486;2023-03-30T23:04:41;6.90;;;1.10;;
78875;SDS011;68253;52.506;5.486;2023-03-30T23:07:11;6.13;;;1.13;;
78875;SDS011;68253;52.506;5.486;2023-03-30T23:09:38;7.65;;;1.35;;
78875;SDS011;68253;52.506;5.486;2023-03-30T23:12:04;7.03;;;1.10;;
78875;SDS011;68253;52.506;5.486;2023-03-30T23:14:31;6.13;;;1.25;;
78875;SDS011;68253;52.506;5.486;2023-03-30T23:16:59;7.45;;;1.10;;
78875;SDS011;68253;52.506;5.486;2023-03-30T23:19:25;7.82;;;1.45;;
78875;SDS011;68253;52.506;5.486;2023-03-30T23:21:53;7.00;;;1.13;;
78875;SDS011;68253;52.506;5.486;2023-03-30T23:24:20;6.90;;;1.25;;
78875;SDS011;68253;52.506;5.486;2023-03-30T23:26:46;6.53;;;1.40;;
78875;SDS011;68253;52.506;5.486;2023-03-30T23:29:12;7.53;;;1.20;;
78875;SDS011;68253;52.506;5.486;2023-03-30T23:31:38;7.70;;;1.35;;
78875;SDS011;68253;52.506;5.486;2023-03-30T23:34:04;5.07;;;1.10;;
78875;SDS011;68253;52.506;5.486;2023-03-30T23:36:30;7.70;;;1.25;;
78875;SDS011;68253;52.506;5.486;2023-03-30T23:38:56;7.00;;;1.10;;
78875;SDS011;68253;52.506;5.486;2023-03-30T23:41:23;6.65;;;1.00;;
78875;SDS011;68253;52.506;5.486;2023-03-30T23:43:50;5.55;;;0.80;;
78875;SDS011;68253;52.506;5.486;2023-03-30T23:46:16;6.00;;;1.00;;
78875;SDS011;68253;52.506;5.486;2023-03-30T23:48:44;7.03;;;1.35;;
78875;SDS011;68253;52.506;5.486;2023-03-30T23:51:10;5.97;;;0.95;;
78875;SDS011;68253;52.506;5.486;2023-03-30T23:53:36;5.05;;;1.02;;
78875;SDS011;68253;52.506;5.486;2023-03-30T23:58:41;7.00;;;1.10;;
